createdAt,value
2022-10-05T00:01:01.295Z,100593.77
2022-10-05T00:06:11.327Z,100605.81
2022-10-05T00:11:15.262Z,100598.83
2022-10-05T00:16:20.799Z,100596.58
2022-10-05T00:21:27.032Z,100606.69
2022-10-05T00:26:33.271Z,100598.83
2022-10-05T00:31:36.626Z,100592.05
2022-10-05T00:36:40.460Z,100597.98
2022-10-05T00:42:18.587Z,100591.70
2022-10-05T00:47:30.104Z,100589.08
2022-10-05T00:52:50.399Z,100592.58
2022-10-05T00:58:11.324Z,100586.98
2022-10-05T01:03:17.776Z,100571.48
2022-10-05T01:08:30.347Z,100561.02
2022-10-05T01:13:49.634Z,100557.49
2022-10-05T01:18:52.432Z,100550.86
2022-10-05T01:24:26.271Z,100553.08
2022-10-05T01:29:44.013Z,100537.55
2022-10-05T01:35:06.984Z,100546.05
2022-10-05T01:40:31.503Z,100547.26
2022-10-05T01:45:53.275Z,100558.57
2022-10-05T01:51:30.971Z,100550.53
2022-10-05T01:56:44.179Z,100557.84
2022-10-05T02:02:11.445Z,100551.55
2022-10-05T02:07:28.983Z,100543.33
2022-10-05T02:12:37.676Z,100536.35
2022-10-05T02:18:06.999Z,100540.70
2022-10-05T02:23:14.845Z,100526.23
2022-10-05T02:28:28.346Z,100520.64
2022-10-05T02:33:33.176Z,100515.40
2022-10-05T02:38:48.207Z,100521.87
2022-10-05T02:44:02.066Z,100511.41
2022-10-05T02:49:13.880Z,100508.46
2022-10-05T02:54:40.279Z,100520.84
2022-10-05T03:00:09.464Z,100526.79
2022-10-05T03:05:58.954Z,100516.31
2022-10-05T03:11:34.128Z,100516.11
2022-10-05T03:16:50.321Z,100523.08
2022-10-05T03:21:55.898Z,100519.38
2022-10-05T03:27:04.738Z,100512.39
2022-10-05T03:32:30.069Z,100507.82
2022-10-05T03:37:48.106Z,100503.62
2022-10-05T03:43:26.052Z,100506.39
2022-10-05T03:48:50.154Z,100498.88
2022-10-05T03:54:05.225Z,100493.80
2022-10-05T03:59:19.104Z,100491.17
2022-10-05T04:04:48.547Z,100488.39
2022-10-05T04:09:54.809Z,100492.38
2022-10-05T04:15:02.532Z,100486.41
2022-10-05T04:20:29.376Z,100483.95
2022-10-05T04:25:46.006Z,100479.92
2022-10-05T04:30:52.399Z,100488.13
2022-10-05T04:36:01.404Z,100483.92
2022-10-05T04:41:16.549Z,100481.61
2022-10-05T04:47:11.113Z,100483.67
2022-10-05T04:52:13.867Z,100479.48
2022-10-05T04:57:23.850Z,100477.35
2022-10-05T05:02:45.587Z,100476.97
2022-10-05T05:08:11.011Z,100462.94
2022-10-05T05:13:38.901Z,100465.86
2022-10-05T05:18:56.959Z,100453.42
2022-10-05T05:24:27.410Z,100478.66
2022-10-05T05:30:08.715Z,100468.80
2022-10-05T05:35:32.201Z,100474.27
2022-10-05T05:40:42.374Z,100471.02
2022-10-05T05:45:59.210Z,100468.80
2022-10-05T05:51:09.344Z,100473.57
2022-10-05T05:56:24.380Z,100477.42
2022-10-05T06:01:35.001Z,100481.63
2022-10-05T06:06:42.644Z,100488.08
2022-10-05T06:11:53.457Z,100480.86
2022-10-05T06:17:29.233Z,100470.62
2022-10-05T06:22:43.709Z,100445.81
2022-10-05T06:28:13.619Z,100446.98
2022-10-05T06:33:56.586Z,100441.73
2022-10-05T06:39:14.751Z,100440.27
2022-10-05T06:44:39.979Z,100449.86
2022-10-05T06:49:50.356Z,100445.17
2022-10-05T06:55:14.162Z,100444.41
2022-10-05T07:00:23.474Z,100446.98
2022-10-05T07:05:44.945Z,100435.36
2022-10-05T07:11:15.809Z,100444.91
2022-10-05T07:16:30.571Z,100425.95
2022-10-05T07:21:50.165Z,100409.55
2022-10-05T07:27:18.377Z,100404.58
2022-10-05T07:32:47.804Z,100403.67
2022-10-05T07:37:57.185Z,100400.00
2022-10-05T07:43:14.481Z,100404.27
2022-10-05T07:48:19.789Z,100410.98
2022-10-05T07:53:40.278Z,100417.23
2022-10-05T07:58:57.108Z,100418.41
2022-10-05T08:04:27.772Z,100409.70
2022-10-05T08:09:55.835Z,100414.16
2022-10-05T08:15:23.720Z,100389.23
2022-10-05T08:20:33.317Z,100393.49
2022-10-05T08:25:59.459Z,100399.41
2022-10-05T08:31:21.695Z,100409.19
2022-10-05T08:36:44.059Z,100412.47
2022-10-05T08:42:11.247Z,100416.57
2022-10-05T08:47:48.256Z,100421.58
2022-10-05T08:53:36.520Z,100418.70
2022-10-05T08:58:49.766Z,100416.94
2022-10-05T09:04:25.645Z,100417.24
2022-10-05T09:10:03.159Z,100413.23
2022-10-05T09:15:26.286Z,100403.38
2022-10-05T09:20:37.029Z,100404.09
2022-10-05T09:25:59.795Z,100388.95
2022-10-05T09:31:37.722Z,100389.48
2022-10-05T09:36:46.565Z,100411.91
2022-10-05T09:41:52.145Z,100408.88
2022-10-05T09:47:12.544Z,100418.94
2022-10-05T09:52:19.182Z,100416.46
2022-10-05T09:57:53.359Z,100417.92
2022-10-05T10:03:02.565Z,100404.05
2022-10-05T10:08:39.732Z,100409.42
2022-10-05T10:14:04.654Z,100405.39
2022-10-05T10:19:37.971Z,100402.99
2022-10-05T10:24:43.860Z,100401.45
2022-10-05T10:30:11.122Z,100396.38
2022-10-05T10:35:36.774Z,100410.10
2022-10-05T10:40:57.170Z,100422.69
2022-10-05T10:45:59.982Z,100420.39
2022-10-05T10:51:12.496Z,100415.80
2022-10-05T10:56:18.249Z,100410.67
2022-10-05T11:01:30.324Z,100389.67
2022-10-05T11:06:48.121Z,100369.46
2022-10-05T11:12:22.122Z,100377.71
2022-10-05T11:17:33.626Z,100360.06
2022-10-05T11:22:46.783Z,100351.41
2022-10-05T11:28:09.715Z,100350.75
2022-10-05T11:33:32.273Z,100353.09
2022-10-05T11:38:46.433Z,100357.49
2022-10-05T11:43:52.310Z,100354.77
2022-10-05T11:49:36.559Z,100356.52
2022-10-05T11:55:10.875Z,100355.84
2022-10-05T12:00:23.965Z,100357.06
2022-10-05T12:05:48.578Z,100356.92
2022-10-05T12:11:10.222Z,100355.84
2022-10-05T12:16:27.013Z,100350.21
2022-10-05T12:21:52.586Z,100348.94
2022-10-05T12:27:13.922Z,100349.05
2022-10-05T12:32:34.929Z,100345.62
2022-10-05T12:37:53.418Z,100341.45
2022-10-05T12:43:02.062Z,100347.02
2022-10-05T12:48:23.608Z,100350.85
2022-10-05T12:54:05.415Z,100352.73
2022-10-05T12:59:19.371Z,100352.77
2022-10-05T13:04:31.151Z,100351.35
2022-10-05T13:09:48.844Z,100349.83
2022-10-05T13:15:20.932Z,100347.99
2022-10-05T13:20:39.190Z,100342.02
2022-10-05T13:25:53.746Z,100345.80
2022-10-05T13:31:20.139Z,100340.02
2022-10-05T13:36:31.437Z,100339.84
2022-10-05T13:42:19.604Z,100339.95
2022-10-05T13:47:40.840Z,100335.36
2022-10-05T13:52:58.578Z,100340.59
2022-10-05T13:58:20.022Z,100339.80
2022-10-05T14:03:38.179Z,100350.69
2022-10-05T14:08:54.295Z,100348.35
2022-10-05T14:14:10.408Z,100343.80
2022-10-05T14:19:22.131Z,100339.41
2022-10-05T14:24:50.471Z,100333.08
2022-10-05T14:30:08.403Z,100316.70
2022-10-05T14:35:13.027Z,100317.88
2022-10-05T14:40:24.413Z,100330.11
2022-10-05T14:45:33.539Z,100328.98
2022-10-05T14:50:57.678Z,100332.03
2022-10-05T14:56:29.759Z,100327.78
2022-10-05T15:01:36.106Z,100323.54
2022-10-05T15:07:04.328Z,100321.08
2022-10-05T15:12:07.674Z,100321.09
2022-10-05T15:17:31.227Z,100327.77
2022-10-05T15:22:40.808Z,100320.38
2022-10-05T15:27:59.624Z,100324.52
2022-10-05T15:33:25.533Z,100329.67
2022-10-05T15:39:00.459Z,100319.45
2022-10-05T15:44:28.576Z,100316.29
2022-10-05T15:49:43.574Z,100323.12
2022-10-05T15:55:14.628Z,100316.44
2022-10-05T16:00:20.054Z,100315.59
2022-10-05T16:05:56.892Z,100307.40
2022-10-05T16:11:01.138Z,100306.98
2022-10-05T16:16:16.548Z,100305.95
2022-10-05T16:21:22.500Z,100302.17
2022-10-05T16:26:51.110Z,100305.17
2022-10-05T16:32:16.437Z,100308.14
2022-10-05T16:37:32.243Z,100314.38
2022-10-05T16:42:42.199Z,100318.12
2022-10-05T16:48:00.579Z,100316.94
2022-10-05T16:53:18.027Z,100313.79
2022-10-05T16:58:27.444Z,100315.05
2022-10-05T17:03:42.478Z,100314.52
2022-10-05T17:08:54.593Z,100314.54
2022-10-05T17:14:29.750Z,100320.02
2022-10-05T17:19:38.292Z,100316.82
2022-10-05T17:25:09.154Z,100318.55
2022-10-05T17:31:00.826Z,100314.20
2022-10-05T17:36:08.717Z,100319.02
2022-10-05T17:41:15.568Z,100309.51
2022-10-05T17:46:38.784Z,100304.44
2022-10-05T17:52:00.232Z,100302.30
2022-10-05T17:57:03.032Z,100301.92
2022-10-05T18:02:26.974Z,100293.23
2022-10-05T18:07:32.156Z,100284.39
2022-10-05T18:12:45.961Z,100283.81
2022-10-05T18:17:54.892Z,100285.32
2022-10-05T18:23:06.198Z,100284.59
2022-10-05T18:28:12.350Z,100279.09
2022-10-05T18:33:47.439Z,100273.77
2022-10-05T18:38:55.483Z,100271.30
2022-10-05T18:43:58.262Z,100269.29
2022-10-05T18:49:25.742Z,100272.60
2022-10-05T18:54:54.885Z,100264.77
2022-10-05T19:00:14.332Z,100263.81
2022-10-05T19:05:47.612Z,100264.10
2022-10-05T19:10:56.636Z,100258.14
2022-10-05T19:16:18.524Z,100259.29
2022-10-05T19:21:50.961Z,100256.05
2022-10-05T19:27:32.061Z,100253.48
2022-10-05T19:32:46.842Z,100257.59
2022-10-05T19:38:02.099Z,100249.80
2022-10-05T19:43:29.846Z,100247.98
2022-10-05T19:48:53.045Z,100254.22
2022-10-05T19:54:25.291Z,100257.52
2022-10-05T19:59:32.861Z,100260.46
2022-10-05T20:04:43.411Z,100256.05
2022-10-05T20:09:54.302Z,100258.08
2022-10-05T20:15:26.780Z,100264.40
2022-10-05T20:20:49.286Z,100267.77
2022-10-05T20:26:11.606Z,100271.55
2022-10-05T20:31:14.807Z,100270.77
2022-10-05T20:36:17.821Z,100270.45
2022-10-05T20:41:20.623Z,100271.41
2022-10-05T20:46:23.613Z,100270.75
2022-10-05T20:51:29.074Z,100268.64
2022-10-05T20:56:34.194Z,100262.89
2022-10-05T21:01:37.156Z,100260.59
2022-10-05T21:07:07.404Z,100259.95
2022-10-05T21:12:11.430Z,100261.17
2022-10-05T21:17:14.695Z,100265.90
2022-10-05T21:22:17.548Z,100261.88
2022-10-05T21:27:20.449Z,100258.40
2022-10-05T21:32:23.354Z,100256.11
2022-10-05T21:37:26.157Z,100250.48
2022-10-05T21:42:29.262Z,100250.32
2022-10-05T21:47:32.373Z,100253.16
2022-10-05T21:52:35.992Z,100250.98
2022-10-05T21:57:39.229Z,100249.16
2022-10-05T22:02:42.417Z,100248.23
2022-10-05T22:07:45.326Z,100250.32
2022-10-05T22:12:48.631Z,100247.40
2022-10-05T22:17:51.542Z,100247.98
2022-10-05T22:22:54.442Z,100251.52
2022-10-05T22:27:57.378Z,100252.62
2022-10-05T22:33:00.351Z,100254.75
2022-10-05T22:38:04.401Z,100251.17
2022-10-05T22:43:07.801Z,100250.35
2022-10-05T22:48:10.712Z,100251.83
2022-10-05T22:53:14.296Z,100258.53
2022-10-05T22:58:17.226Z,100258.77
2022-10-05T23:03:20.129Z,100257.64
2022-10-05T23:08:23.035Z,100257.34
2022-10-05T23:13:25.939Z,100256.84
2022-10-05T23:18:29.086Z,100256.55
2022-10-05T23:23:40.961Z,100249.23
2022-10-05T23:28:47.356Z,100252.75
2022-10-05T23:33:51.102Z,100255.20
2022-10-05T23:38:54.703Z,100251.88
2022-10-05T23:43:57.597Z,100249.44
2022-10-05T23:49:00.497Z,100249.14
2022-10-05T23:54:03.402Z,100246.95
2022-10-05T23:59:06.307Z,100247.35
